Time;durP1;ratioP1;P1;durP2;ratioP2;P2;SDS_P1;SDS_P2;PMS_P1;PMS_P2;Temp;Humidity;BMP_temperature;BMP_pressure;BME280_temperature;BME280_humidity;BME280_pressure;Samples;Min_cycle;Max_cycle;Signal;HPM_P1;HPM_P2
2021/01/26 00:01:29;;;;;;;10.27;3.63;;;4.50;99.90;;;;;;5106998;28;20278;-78
2021/01/26 00:03:56;;;;;;;9.70;2.97;;;4.50;99.90;;;;;;5112414;28;20571;-78
2021/01/26 00:06:22;;;;;;;16.33;3.23;;;4.50;99.90;;;;;;5112667;28;20249;-78
2021/01/26 00:08:48;;;;;;;12.97;3.47;;;4.60;99.90;;;;;;5112245;28;20253;-78
2021/01/26 00:11:15;;;;;;;6.87;2.90;;;4.60;99.90;;;;;;5112717;28;20250;-77
2021/01/26 00:13:42;;;;;;;15.33;3.23;;;4.60;99.90;;;;;;5112400;28;20714;-78
2021/01/26 00:16:08;;;;;;;10.70;3.50;;;4.60;99.90;;;;;;5107529;28;20296;-78
2021/01/26 00:18:34;;;;;;;14.47;3.00;;;4.60;99.90;;;;;;5112037;28;20622;-78
2021/01/26 00:21:01;;;;;;;7.20;2.90;;;4.60;99.90;;;;;;5112256;28;20639;-78
2021/01/26 00:23:27;;;;;;;14.43;3.33;;;4.60;99.90;;;;;;5112220;28;20630;-78
2021/01/26 00:25:54;;;;;;;11.40;3.10;;;4.60;99.90;;;;;;5112163;28;20307;-78
2021/01/26 00:28:21;;;;;;;16.80;3.80;;;4.50;99.90;;;;;;5112398;28;20231;-78
2021/01/26 00:30:48;;;;;;;12.63;3.17;;;4.50;99.90;;;;;;5112343;28;20205;-78
2021/01/26 00:33:17;;;;;;;8.27;2.57;;;4.50;99.90;;;;;;5110182;28;20291;-78
2021/01/26 00:35:44;;;;;;;14.90;3.53;;;4.50;99.90;;;;;;5112712;28;20202;-79
2021/01/26 00:38:11;;;;;;;11.93;3.60;;;4.40;99.90;;;;;;5101595;28;20322;-78
2021/01/26 00:40:38;;;;;;;10.90;3.37;;;4.30;99.90;;;;;;5092181;28;20200;-78
2021/01/26 00:43:05;;;;;;;10.13;2.90;;;4.40;99.90;;;;;;5091258;28;20200;-78
2021/01/26 00:45:31;;;;;;;13.60;3.27;;;4.30;99.90;;;;;;5093852;28;20626;-78
2021/01/26 00:47:58;;;;;;;8.83;3.30;;;4.40;99.90;;;;;;5093869;28;20284;-78
2021/01/26 00:50:26;;;;;;;15.40;2.90;;;4.40;99.90;;;;;;5093069;28;20255;-78
2021/01/26 00:52:53;;;;;;;9.47;2.80;;;4.40;99.90;;;;;;5092804;28;20201;-78
2021/01/26 00:55:20;;;;;;;15.23;3.17;;;4.40;99.90;;;;;;5092754;28;20196;-78
2021/01/26 00:57:46;;;;;;;11.23;3.10;;;4.40;99.90;;;;;;5091677;28;20253;-78
2021/01/26 01:00:17;;;;;;;11.10;3.00;;;4.40;99.90;;;;;;5098675;28;20306;-78
2021/01/26 01:02:44;;;;;;;12.53;3.43;;;4.50;99.90;;;;;;5106312;28;20206;-79
2021/01/26 01:05:13;;;;;;;9.43;2.93;;;4.50;99.90;;;;;;5111726;28;20611;-78
2021/01/26 01:07:39;;;;;;;8.60;2.57;;;4.50;99.90;;;;;;5109033;28;20284;-78
2021/01/26 01:10:08;;;;;;;11.20;3.10;;;4.50;99.90;;;;;;5112396;28;20290;-78
2021/01/26 01:12:34;;;;;;;12.60;3.00;;;4.50;99.90;;;;;;5111012;28;20613;-78
2021/01/26 01:15:00;;;;;;;10.63;2.73;;;4.50;99.90;;;;;;5109789;28;20294;-78
2021/01/26 01:17:27;;;;;;;12.43;3.03;;;4.50;99.90;;;;;;5115898;28;20198;-78
2021/01/26 01:19:53;;;;;;;12.90;2.43;;;4.50;99.90;;;;;;5116128;28;20199;-78
2021/01/26 01:22:21;;;;;;;8.97;2.70;;;4.50;99.90;;;;;;5115373;28;20219;-78
2021/01/26 01:24:47;;;;;;;10.40;2.70;;;4.50;99.90;;;;;;5116275;28;20198;-78
2021/01/26 01:27:13;;;;;;;13.37;2.67;;;4.40;99.90;;;;;;5116274;28;20261;-78
2021/01/26 01:29:40;;;;;;;13.03;2.70;;;4.20;99.90;;;;;;5102581;28;20200;-78
2021/01/26 01:32:06;;;;;;;12.07;2.73;;;4.10;99.90;;;;;;5115976;28;20759;-78
2021/01/26 01:34:32;;;;;;;17.10;3.00;;;4.10;99.90;;;;;;5103322;28;20200;-78
2021/01/26 01:36:59;;;;;;;10.93;2.30;;;3.90;99.90;;;;;;5095271;28;20292;-78
2021/01/26 01:39:26;;;;;;;10.63;2.77;;;3.80;99.90;;;;;;5103996;28;20196;-78
2021/01/26 01:41:52;;;;;;;6.23;2.10;;;3.70;99.90;;;;;;5095820;28;20196;-78
2021/01/26 01:44:19;;;;;;;13.00;2.43;;;3.70;99.90;;;;;;5094866;28;20205;-78
2021/01/26 01:46:49;;;;;;;8.90;2.27;;;3.80;99.90;;;;;;5105687;28;20236;-78
2021/01/26 01:49:20;;;;;;;11.73;2.73;;;3.80;99.90;;;;;;5103678;27;20215;-78
2021/01/26 01:51:47;;;;;;;9.00;3.00;;;3.80;99.90;;;;;;5104819;28;20565;-78
2021/01/26 01:54:18;;;;;;;15.23;2.50;;;3.90;99.90;;;;;;5099688;28;20204;-79
2021/01/26 01:56:52;;;;;;;7.27;2.10;;;3.90;99.90;;;;;;5100267;28;20530;-78
2021/01/26 01:59:21;;;;;;;9.37;2.57;;;4.10;99.90;;;;;;5094323;28;20205;-78
2021/01/26 02:01:49;;;;;;;11.17;2.37;;;4.10;99.90;;;;;;5094134;28;20542;-79
2021/01/26 02:04:19;;;;;;;12.33;3.03;;;4.10;99.90;;;;;;5103752;28;20206;-78
2021/01/26 02:06:50;;;;;;;6.83;2.20;;;4.10;99.90;;;;;;5114410;28;20231;-78
2021/01/26 02:09:20;;;;;;;14.87;2.57;;;4.20;99.90;;;;;;5114844;28;20204;-79
2021/01/26 02:11:48;;;;;;;10.70;2.17;;;4.20;99.90;;;;;;5114315;28;20275;-79
2021/01/26 02:14:15;;;;;;;13.23;2.83;;;4.20;99.90;;;;;;5114897;28;20206;-79
2021/01/26 02:16:57;;;;;;;14.13;2.63;;;4.10;99.90;;;;;;5114739;28;20227;-78
2021/01/26 02:20:06;;;;;;;11.30;2.80;;;4.00;99.90;;;;;;5122529;27;20207;-78
2021/01/26 02:23:07;;;;;;;7.23;2.03;;;4.00;99.90;;;;;;5095922;27;20203;-78
2021/01/26 02:26:13;;;;;;;6.30;2.27;;;4.00;99.90;;;;;;5120202;27;20209;-78
2021/01/26 02:28:56;;;;;;;13.27;2.60;;;3.80;99.90;;;;;;5135625;27;20639;-79
2021/01/26 02:31:49;;;;;;;12.37;2.63;;;3.70;99.90;;;;;;5134813;27;20193;-78
2021/01/26 02:34:52;;;;;;;16.60;2.67;;;3.50;99.90;;;;;;5135102;27;20689;-78
2021/01/26 02:38:04;;;;;;;14.67;2.90;;;3.50;99.90;;;;;;5072587;27;20202;-79
2021/01/26 02:40:36;;;;;;;9.87;2.73;;;3.40;99.90;;;;;;5134996;27;20535;-78
2021/01/26 02:43:20;;;;;;;12.03;2.97;;;3.40;99.90;;;;;;5134758;27;20290;-79
2021/01/26 02:45:59;;;;;;;9.37;2.77;;;3.40;99.90;;;;;;5135073;27;20209;-78
2021/01/26 02:48:39;;;;;;;13.33;2.53;;;3.40;99.90;;;;;;5134895;27;20277;-78
2021/01/26 02:51:22;;;;;;;8.00;2.33;;;3.40;99.90;;;;;;5134758;27;20565;-79
2021/01/26 02:53:56;;;;;;;7.63;2.30;;;3.30;99.90;;;;;;5134479;27;20225;-78
2021/01/26 02:56:34;;;;;;;12.30;3.07;;;3.30;99.90;;;;;;5134700;27;20203;-79
2021/01/26 02:59:03;;;;;;;11.67;2.33;;;3.20;99.90;;;;;;5134456;27;20250;-78
2021/01/26 03:01:35;;;;;;;11.83;2.50;;;3.20;99.90;;;;;;5134402;27;20202;-79
2021/01/26 03:04:06;;;;;;;8.33;2.70;;;3.20;99.90;;;;;;5134389;27;20204;-78
2021/01/26 03:06:35;;;;;;;13.37;2.50;;;3.20;99.90;;;;;;5134427;27;20257;-78
2021/01/26 03:09:14;;;;;;;18.80;2.90;;;3.10;99.90;;;;;;5134274;27;20598;-79
2021/01/26 03:11:48;;;;;;;10.67;2.50;;;3.10;99.90;;;;;;5134345;27;20559;-79
2021/01/26 03:14:18;;;;;;;8.47;2.33;;;3.10;99.90;;;;;;5133736;27;20334;-79
2021/01/26 03:16:50;;;;;;;9.00;2.70;;;3.10;99.90;;;;;;5134506;27;20201;-78
2021/01/26 03:19:21;;;;;;;7.97;2.43;;;3.10;99.90;;;;;;5133919;27;20714;-79
2021/01/26 03:21:52;;;;;;;12.67;3.07;;;3.10;99.90;;;;;;5134325;27;20198;-79
2021/01/26 03:24:23;;;;;;;13.63;2.53;;;3.10;99.90;;;;;;5133948;27;20193;-79
2021/01/26 03:26:51;;;;;;;10.30;2.30;;;3.10;99.90;;;;;;5133542;27;20226;-79
2021/01/26 03:29:22;;;;;;;8.43;2.20;;;3.10;99.90;;;;;;5133622;27;20203;-79
2021/01/26 03:31:52;;;;;;;12.90;2.63;;;3.10;99.90;;;;;;5134218;27;20289;-79
2021/01/26 03:34:18;;;;;;;9.13;2.40;;;3.00;99.90;;;;;;5133227;27;20289;-79
2021/01/26 03:36:45;;;;;;;10.87;2.33;;;3.00;99.90;;;;;;5133714;27;20610;-79
2021/01/26 03:39:12;;;;;;;17.33;3.37;;;3.00;99.90;;;;;;5133476;27;20254;-79
2021/01/26 03:41:38;;;;;;;11.20;2.73;;;3.10;99.90;;;;;;5133299;27;20224;-79
2021/01/26 03:44:09;;;;;;;16.13;2.60;;;3.10;99.90;;;;;;5133773;27;20204;-79
2021/01/26 03:47:00;;;;;;;15.33;2.60;;;3.10;99.90;;;;;;5133616;27;20217;-79
2021/01/26 03:49:42;;;;;;;13.20;2.37;;;3.10;99.90;;;;;;5133346;27;20212;-78
2021/01/26 03:52:22;;;;;;;10.13;2.23;;;3.20;99.90;;;;;;5133899;27;20289;-78
2021/01/26 03:54:56;;;;;;;11.33;2.60;;;3.10;99.90;;;;;;5133258;27;20206;-77
2021/01/26 03:57:39;;;;;;;7.50;2.40;;;3.10;99.90;;;;;;5133561;27;20225;-78
2021/01/26 04:00:11;;;;;;;6.93;2.33;;;3.00;99.90;;;;;;5133073;27;20334;-78
2021/01/26 04:02:59;;;;;;;9.57;2.10;;;3.00;99.90;;;;;;5133697;27;20228;-78
2021/01/26 04:05:31;;;;;;;8.80;2.13;;;3.10;99.90;;;;;;5133423;27;20269;-78
2021/01/26 04:08:02;;;;;;;6.23;2.33;;;3.10;99.90;;;;;;5133270;27;20252;-78
2021/01/26 04:10:31;;;;;;;11.53;2.40;;;3.10;99.90;;;;;;5133013;27;20285;-78
2021/01/26 04:13:00;;;;;;;13.60;2.50;;;3.10;99.90;;;;;;5133239;27;20254;-79
2021/01/26 04:15:33;;;;;;;8.00;2.40;;;3.00;99.90;;;;;;5133174;27;20234;-78
2021/01/26 04:18:00;;;;;;;9.73;2.13;;;3.10;99.90;;;;;;5133419;28;20195;-79
2021/01/26 04:20:31;;;;;;;6.57;2.17;;;3.10;99.90;;;;;;5133079;28;20589;-78
2021/01/26 04:22:59;;;;;;;5.13;1.83;;;3.10;99.90;;;;;;5133418;28;20199;-79
2021/01/26 04:25:34;;;;;;;9.67;2.73;;;3.10;99.90;;;;;;5132992;27;20255;-78
2021/01/26 04:28:04;;;;;;;11.60;2.40;;;3.00;99.90;;;;;;5133068;28;20227;-78
2021/01/26 04:30:32;;;;;;;9.30;2.07;;;3.00;99.90;;;;;;5133257;28;20297;-79
2021/01/26 04:33:00;;;;;;;9.20;2.20;;;3.00;99.90;;;;;;5133185;28;20194;-79
2021/01/26 04:35:26;;;;;;;10.23;2.20;;;3.00;99.90;;;;;;5132910;27;20198;-79
2021/01/26 04:37:54;;;;;;;5.47;2.10;;;2.90;99.90;;;;;;5133215;28;20285;-78
2021/01/26 04:40:21;;;;;;;8.07;2.50;;;2.90;99.90;;;;;;5133190;27;20277;-79
2021/01/26 04:42:51;;;;;;;8.43;2.20;;;3.00;99.90;;;;;;5133072;28;20199;-79
2021/01/26 04:45:26;;;;;;;13.70;2.20;;;3.00;99.90;;;;;;5133868;27;20208;-79
2021/01/26 04:48:03;;;;;;;6.13;1.90;;;2.90;99.90;;;;;;5136760;27;20316;-79
2021/01/26 04:50:41;;;;;;;9.47;2.13;;;3.00;99.90;;;;;;5137110;27;20572;-78
2021/01/26 04:53:28;;;;;;;10.73;2.57;;;2.90;99.90;;;;;;5136877;27;20673;-78
2021/01/26 04:56:03;;;;;;;8.27;1.97;;;3.00;99.90;;;;;;5137285;27;20226;-78
2021/01/26 04:58:50;;;;;;;13.70;3.00;;;3.00;99.90;;;;;;5137946;27;20197;-79
2021/01/26 05:01:27;;;;;;;10.87;2.80;;;2.90;99.90;;;;;;5122652;27;20278;-79
2021/01/26 05:04:06;;;;;;;11.30;2.27;;;2.90;99.90;;;;;;5117211;27;20284;-79
2021/01/26 05:06:35;;;;;;;8.90;2.57;;;2.90;99.90;;;;;;5122215;27;20230;-79
2021/01/26 05:09:05;;;;;;;5.77;2.53;;;2.90;99.90;;;;;;5126842;27;20195;-78
2021/01/26 05:11:37;;;;;;;10.70;3.20;;;3.00;99.90;;;;;;5121581;27;20214;-79
2021/01/26 05:14:19;;;;;;;9.53;2.70;;;2.90;99.90;;;;;;5116455;27;20282;-78
2021/01/26 05:16:54;;;;;;;9.90;2.67;;;2.80;99.90;;;;;;5122655;27;20643;-78
2021/01/26 05:19:25;;;;;;;5.87;2.60;;;2.80;99.90;;;;;;5125539;27;20506;-79
2021/01/26 05:22:02;;;;;;;12.93;3.55;;;2.80;99.90;;;;;;5121553;27;20446;-78
2021/01/26 05:24:33;;;;;;;7.60;3.03;;;2.90;99.90;;;;;;5125426;27;20282;-79
2021/01/26 05:27:01;;;;;;;8.73;2.60;;;2.80;99.90;;;;;;5112741;27;20313;-79
2021/01/26 05:29:27;;;;;;;7.37;2.63;;;2.80;99.90;;;;;;5109781;27;20652;-78
2021/01/26 05:31:58;;;;;;;10.40;2.60;;;2.70;99.90;;;;;;5113164;27;20285;-77
2021/01/26 05:34:27;;;;;;;8.37;2.30;;;2.70;99.90;;;;;;5110697;27;20207;-78
2021/01/26 05:36:54;;;;;;;7.03;2.40;;;2.80;99.90;;;;;;5106645;27;20248;-78
2021/01/26 05:39:24;;;;;;;9.80;2.80;;;2.70;99.90;;;;;;5110361;27;20225;-78
2021/01/26 05:41:51;;;;;;;9.63;2.50;;;2.60;99.90;;;;;;5113517;27;20202;-79
2021/01/26 05:44:19;;;;;;;9.67;3.00;;;2.60;99.90;;;;;;5111238;27;20221;-79
2021/01/26 05:46:54;;;;;;;8.87;2.67;;;2.60;99.90;;;;;;5110094;27;20657;-79
2021/01/26 05:49:42;;;;;;;9.20;3.00;;;2.60;99.90;;;;;;5117013;27;20232;-79
2021/01/26 05:52:10;;;;;;;9.90;2.43;;;2.60;99.90;;;;;;5113393;27;20220;-79
2021/01/26 05:54:48;;;;;;;12.87;2.50;;;2.60;99.90;;;;;;5116881;27;20206;-78
2021/01/26 05:57:25;;;;;;;6.80;2.70;;;2.50;99.90;;;;;;5116659;27;20288;-79
2021/01/26 05:59:51;;;;;;;7.53;2.10;;;2.50;99.90;;;;;;5118372;27;20289;-79
2021/01/26 06:02:22;;;;;;;8.63;2.07;;;2.50;99.90;;;;;;5116866;27;20201;-79
2021/01/26 06:04:49;;;;;;;10.37;2.10;;;2.40;99.90;;;;;;5117013;27;20210;-79
2021/01/26 06:07:20;;;;;;;7.37;2.20;;;2.50;99.90;;;;;;5117377;27;20368;-79
2021/01/26 06:09:47;;;;;;;5.03;2.17;;;2.50;99.90;;;;;;5117076;27;20204;-79
2021/01/26 06:12:16;;;;;;;5.97;2.03;;;2.50;99.90;;;;;;5118099;27;20245;-79
2021/01/26 06:14:45;;;;;;;12.70;1.97;;;2.50;99.90;;;;;;5109823;27;20202;-79
2021/01/26 06:17:18;;;;;;;14.87;2.40;;;2.50;99.90;;;;;;5113132;27;20293;-78
2021/01/26 06:19:45;;;;;;;6.47;2.40;;;2.50;99.90;;;;;;5113659;28;20199;-79
2021/01/26 06:22:23;;;;;;;11.90;2.43;;;2.40;99.90;;;;;;5113897;28;20659;-80
2021/01/26 06:24:52;;;;;;;7.30;2.00;;;2.50;99.90;;;;;;5113480;28;20202;-78
2021/01/26 06:27:46;;;;;;;8.67;2.17;;;2.50;99.90;;;;;;5127947;27;20223;-79
2021/01/26 06:30:25;;;;;;;10.00;2.10;;;2.50;99.90;;;;;;5134871;27;20207;-79
2021/01/26 06:33:15;;;;;;;10.57;2.47;;;2.40;99.90;;;;;;5134492;27;20294;-79
2021/01/26 06:35:53;;;;;;;7.27;2.10;;;2.40;99.90;;;;;;5120433;27;20209;-79
2021/01/26 06:38:41;;;;;;;9.07;2.10;;;2.40;99.90;;;;;;5113833;27;20579;-79
2021/01/26 06:41:25;;;;;;;9.77;2.50;;;2.40;99.90;;;;;;5115991;27;20287;-79
2021/01/26 06:44:07;;;;;;;5.90;2.30;;;2.40;99.90;;;;;;5106975;27;20203;-79
2021/01/26 06:46:52;;;;;;;9.13;2.07;;;2.40;99.90;;;;;;5114972;27;20334;-77
2021/01/26 06:49:49;;;;;;;8.47;2.40;;;2.40;99.90;;;;;;5114965;27;20371;-78
2021/01/26 06:52:29;;;;;;;5.27;2.43;;;2.50;99.90;;;;;;5108528;27;20203;-79
2021/01/26 06:55:21;;;;;;;6.13;2.23;;;2.50;99.90;;;;;;5115328;27;20655;-79
2021/01/26 06:58:08;;;;;;;7.27;2.57;;;2.50;99.90;;;;;;5107223;27;20213;-78
2021/01/26 07:00:48;;;;;;;11.43;2.40;;;2.50;99.90;;;;;;5111256;27;20216;-79
2021/01/26 07:03:45;;;;;;;6.67;2.30;;;2.50;99.90;;;;;;5108448;27;20199;-79
2021/01/26 07:06:27;;;;;;;10.57;2.83;;;2.50;99.90;;;;;;5113074;27;20211;-79
2021/01/26 07:09:25;;;;;;;9.30;2.23;;;2.50;99.90;;;;;;5112381;27;20228;-78
2021/01/26 07:12:19;;;;;;;7.47;2.70;;;2.60;99.90;;;;;;5108739;28;20226;-79
2021/01/26 07:15:18;;;;;;;8.50;2.50;;;2.60;99.90;;;;;;5107523;28;20574;-78
2021/01/26 07:18:01;;;;;;;9.63;2.17;;;2.60;99.90;;;;;;5118518;27;20249;-78
2021/01/26 07:20:33;;;;;;;5.87;2.50;;;2.60;99.90;;;;;;5098295;27;20695;-79
2021/01/26 07:23:22;;;;;;;20.67;2.60;;;2.60;99.90;;;;;;5119884;27;20199;-78
2021/01/26 07:26:24;;;;;;;4.13;2.10;;;2.60;99.90;;;;;;5125285;27;20371;-79
2021/01/26 07:29:12;;;;;;;7.30;2.30;;;2.70;99.90;;;;;;5107363;27;20203;-79
2021/01/26 07:31:45;;;;;;;8.27;2.30;;;2.60;99.90;;;;;;5114589;27;20283;-78
2021/01/26 07:34:20;;;;;;;6.23;2.67;;;2.70;99.90;;;;;;5111693;27;20355;-79
2021/01/26 07:36:54;;;;;;;8.83;2.60;;;2.70;99.90;;;;;;5112175;28;20191;-79
2021/01/26 07:39:28;;;;;;;12.43;2.80;;;2.70;99.90;;;;;;5128929;27;20186;-78
2021/01/26 07:41:59;;;;;;;7.47;2.60;;;2.70;99.90;;;;;;5100108;27;20281;-78
2021/01/26 07:44:34;;;;;;;8.63;2.53;;;2.70;99.90;;;;;;5123841;27;20194;-78
2021/01/26 07:47:08;;;;;;;11.43;2.43;;;2.70;99.90;;;;;;5129442;27;20227;-78
2021/01/26 07:49:42;;;;;;;8.57;2.70;;;2.80;99.90;;;;;;5132080;27;20202;-79
2021/01/26 07:52:09;;;;;;;8.43;2.50;;;2.70;99.90;;;;;;5118200;27;20619;-78
2021/01/26 07:54:42;;;;;;;5.23;2.00;;;2.70;99.90;;;;;;5125321;27;20213;-78
2021/01/26 07:57:09;;;;;;;7.73;2.37;;;2.70;99.90;;;;;;5126580;27;20499;-78
2021/01/26 07:59:40;;;;;;;10.17;2.70;;;2.80;99.90;;;;;;5120813;27;20668;-78
2021/01/26 08:02:16;;;;;;;9.83;2.60;;;2.80;99.90;;;;;;5131010;27;20211;-78
2021/01/26 08:04:43;;;;;;;12.33;2.80;;;2.90;99.90;;;;;;5113214;27;20209;-78
2021/01/26 08:07:22;;;;;;;9.00;2.43;;;2.90;99.90;;;;;;5118553;27;20254;-78
2021/01/26 08:09:51;;;;;;;7.53;2.63;;;2.90;99.90;;;;;;5129277;27;20207;-78
2021/01/26 08:12:20;;;;;;;6.50;2.30;;;2.90;99.90;;;;;;5119112;27;20806;-78
2021/01/26 08:14:51;;;;;;;8.50;2.30;;;2.90;99.90;;;;;;5121347;27;20671;-79
2021/01/26 08:17:28;;;;;;;6.20;2.30;;;2.90;99.90;;;;;;5127675;28;20191;-78
2021/01/26 08:20:04;;;;;;;10.33;2.63;;;2.90;99.90;;;;;;5102769;27;20185;-79
2021/01/26 08:22:33;;;;;;;7.27;2.10;;;2.90;99.90;;;;;;5139549;27;20200;-77
2021/01/26 08:25:05;;;;;;;6.90;2.40;;;3.00;99.90;;;;;;5126792;27;20465;-78
2021/01/26 08:28:00;;;;;;;13.37;2.50;;;3.00;99.90;;;;;;5133893;27;20689;-78
2021/01/26 08:31:04;;;;;;;8.77;2.63;;;3.00;99.90;;;;;;5114387;27;20651;-78
2021/01/26 08:33:34;;;;;;;10.00;2.60;;;3.00;99.90;;;;;;5136077;27;20634;-78
2021/01/26 08:36:10;;;;;;;10.03;2.73;;;3.00;99.90;;;;;;5123641;27;20573;-79
2021/01/26 08:38:55;;;;;;;8.67;2.20;;;3.00;99.90;;;;;;5129981;27;20342;-79
2021/01/26 08:41:44;;;;;;;3.73;2.20;;;3.10;99.90;;;;;;5135039;27;20251;-79
2021/01/26 08:44:30;;;;;;;12.90;3.10;;;3.20;99.90;;;;;;5106858;27;20201;-79
2021/01/26 08:46:57;;;;;;;8.57;2.47;;;3.10;99.90;;;;;;5130722;27;20225;-79
2021/01/26 08:49:27;;;;;;;7.37;2.57;;;3.10;99.90;;;;;;5132471;27;20289;-78
2021/01/26 08:51:55;;;;;;;6.23;2.50;;;3.10;99.90;;;;;;5136158;27;20193;-78
2021/01/26 08:54:41;;;;;;;13.27;3.10;;;3.10;99.90;;;;;;5131968;27;20195;-78
2021/01/26 08:57:38;;;;;;;6.20;2.70;;;3.10;99.90;;;;;;5134321;27;20296;-79
2021/01/26 09:00:25;;;;;;;12.13;2.40;;;3.10;99.90;;;;;;5108465;27;20234;-78
2021/01/26 09:02:53;;;;;;;10.13;2.80;;;3.20;99.90;;;;;;5126370;27;20278;-79
2021/01/26 09:05:52;;;;;;;6.63;2.13;;;3.20;99.90;;;;;;5121905;27;20206;-79
2021/01/26 09:08:48;;;;;;;6.53;2.40;;;3.20;99.90;;;;;;5107220;27;20865;-78
2021/01/26 09:11:19;;;;;;;12.70;3.03;;;3.30;99.90;;;;;;5121473;27;20303;-79
2021/01/26 09:13:46;;;;;;;9.63;3.00;;;3.40;99.90;;;;;;5123373;27;20191;-79
2021/01/26 09:16:18;;;;;;;9.47;2.90;;;3.40;99.90;;;;;;5129426;27;20241;-79
2021/01/26 09:18:52;;;;;;;6.50;2.37;;;3.40;99.90;;;;;;5121112;27;20275;-78
2021/01/26 09:21:19;;;;;;;6.87;2.70;;;3.40;99.90;;;;;;5127912;27;20384;-78
2021/01/26 09:23:45;;;;;;;3.90;2.27;;;3.40;99.90;;;;;;5120587;27;20576;-78
2021/01/26 09:26:14;;;;;;;7.97;2.53;;;3.40;99.90;;;;;;5129979;27;20299;-79
2021/01/26 09:28:42;;;;;;;5.97;3.30;;;3.40;99.90;;;;;;5124917;27;20709;-78
2021/01/26 09:31:10;;;;;;;13.17;2.80;;;3.30;99.90;;;;;;5101492;27;20203;-79
2021/01/26 09:33:37;;;;;;;8.87;2.67;;;3.40;99.90;;;;;;5118491;27;20222;-79
2021/01/26 09:36:09;;;;;;;10.37;3.23;;;3.40;99.90;;;;;;5127700;27;20529;-78
2021/01/26 09:38:37;;;;;;;9.67;2.93;;;3.50;99.90;;;;;;5113798;27;20294;-79
2021/01/26 09:41:06;;;;;;;7.63;2.53;;;3.60;99.90;;;;;;5120972;27;20259;-79
2021/01/26 09:43:36;;;;;;;11.63;3.00;;;3.70;99.90;;;;;;5120281;27;20268;-79
2021/01/26 09:46:05;;;;;;;7.30;2.63;;;3.80;99.90;;;;;;5125710;27;20230;-79
2021/01/26 09:48:36;;;;;;;8.33;2.50;;;3.90;99.90;;;;;;5122528;27;20691;-79
2021/01/26 09:51:11;;;;;;;12.57;3.20;;;4.10;99.90;;;;;;5123867;27;20298;-78
2021/01/26 09:53:38;;;;;;;9.57;2.80;;;4.20;99.90;;;;;;5120815;27;20202;-79
2021/01/26 09:56:06;;;;;;;6.73;2.57;;;4.30;99.90;;;;;;5125637;27;20281;-79
2021/01/26 09:58:33;;;;;;;8.97;2.90;;;4.40;99.90;;;;;;5123578;27;20581;-79
2021/01/26 10:01:00;;;;;;;6.50;2.90;;;4.40;99.90;;;;;;5125263;27;20226;-78
2021/01/26 10:03:28;;;;;;;7.70;2.80;;;4.40;99.90;;;;;;5124337;27;20222;-78
2021/01/26 10:05:55;;;;;;;8.37;3.03;;;4.50;99.90;;;;;;5121781;27;20192;-78
2021/01/26 10:08:29;;;;;;;6.20;2.93;;;4.50;99.90;;;;;;5123789;27;20706;-78
2021/01/26 10:10:56;;;;;;;11.63;3.70;;;4.40;99.90;;;;;;5119585;27;20286;-78
2021/01/26 10:13:30;;;;;;;7.03;2.67;;;4.60;99.90;;;;;;5119193;27;20600;-78
2021/01/26 10:15:58;;;;;;;8.27;2.53;;;5.00;99.90;;;;;;5125920;27;20195;-78
2021/01/26 10:18:28;;;;;;;8.93;2.77;;;5.40;99.90;;;;;;5123788;27;20197;-77
2021/01/26 10:21:08;;;;;;;8.20;2.97;;;5.40;99.90;;;;;;5121142;27;20281;-79
2021/01/26 10:23:37;;;;;;;7.23;3.33;;;5.50;99.90;;;;;;5116871;27;20206;-77
2021/01/26 10:26:10;;;;;;;12.47;3.73;;;5.40;99.90;;;;;;5114748;27;20291;-78
2021/01/26 10:28:52;;;;;;;13.27;3.30;;;5.30;99.90;;;;;;5114656;27;20249;-78
2021/01/26 10:31:19;;;;;;;7.93;3.57;;;5.40;99.90;;;;;;5117292;27;20286;-78
2021/01/26 10:33:45;;;;;;;8.00;3.10;;;5.60;99.90;;;;;;5118354;27;20203;-78
2021/01/26 10:36:20;;;;;;;6.90;2.83;;;5.60;99.90;;;;;;5122806;27;20209;-78
2021/01/26 10:38:49;;;;;;;7.40;2.77;;;5.70;99.90;;;;;;5125438;27;20330;-78
2021/01/26 10:41:22;;;;;;;12.20;2.87;;;5.90;99.90;;;;;;5116221;27;20197;-78
2021/01/26 10:44:00;;;;;;;6.70;2.70;;;5.90;99.90;;;;;;5118215;27;20207;-78
2021/01/26 10:46:30;;;;;;;9.60;2.80;;;5.90;99.90;;;;;;5123112;27;20274;-78
2021/01/26 10:49:13;;;;;;;6.33;2.73;;;5.90;99.90;;;;;;5124538;27;20236;-78
2021/01/26 10:51:40;;;;;;;7.20;2.93;;;5.90;99.90;;;;;;5122167;27;20192;-78
2021/01/26 10:54:09;;;;;;;7.33;2.53;;;5.80;99.90;;;;;;5123094;27;20256;-78
2021/01/26 10:56:35;;;;;;;8.63;2.93;;;5.80;99.90;;;;;;5125083;27;20196;-78
2021/01/26 10:59:02;;;;;;;8.30;2.97;;;5.70;99.90;;;;;;5127047;27;20232;-78
2021/01/26 11:01:29;;;;;;;7.07;2.60;;;5.70;99.90;;;;;;5122988;27;20204;-78
2021/01/26 11:03:56;;;;;;;6.17;2.70;;;5.60;99.90;;;;;;5122085;27;20546;-78
2021/01/26 11:06:24;;;;;;;12.37;2.93;;;5.60;99.90;;;;;;5118955;27;20201;-78
2021/01/26 11:08:51;;;;;;;8.47;3.00;;;5.70;99.90;;;;;;5123810;27;20583;-78
2021/01/26 11:11:20;;;;;;;7.87;2.77;;;5.80;99.90;;;;;;5121604;27;20689;-78
2021/01/26 11:13:47;;;;;;;6.87;3.00;;;5.90;99.90;;;;;;5124552;27;20191;-78
2021/01/26 11:16:13;;;;;;;8.07;2.73;;;5.90;99.90;;;;;;5122427;27;20282;-77
2021/01/26 11:18:41;;;;;;;7.47;3.20;;;5.80;99.90;;;;;;5124588;27;20739;-77
2021/01/26 11:21:08;;;;;;;13.27;3.50;;;5.80;99.90;;;;;;5125845;27;20197;-78
2021/01/26 11:23:34;;;;;;;10.37;2.73;;;5.90;99.90;;;;;;5126363;27;20287;-77
2021/01/26 11:26:01;;;;;;;7.73;3.07;;;5.80;99.90;;;;;;5115935;27;20199;-78
2021/01/26 11:28:28;;;;;;;8.57;3.10;;;5.90;99.90;;;;;;5122803;27;20771;-78
2021/01/26 11:30:54;;;;;;;9.93;3.20;;;6.00;99.90;;;;;;5115953;27;20371;-78
2021/01/26 11:33:21;;;;;;;8.07;2.90;;;6.00;99.90;;;;;;5113652;27;20206;-78
2021/01/26 11:35:47;;;;;;;7.67;2.87;;;6.20;99.90;;;;;;5114892;27;20198;-77
2021/01/26 11:38:14;;;;;;;6.77;3.10;;;6.40;99.90;;;;;;5114141;27;20208;-78
2021/01/26 11:40:40;;;;;;;10.03;3.23;;;6.40;99.90;;;;;;5113397;27;20555;-78
2021/01/26 11:43:07;;;;;;;5.47;2.67;;;6.50;99.90;;;;;;5130548;27;20281;-85
2021/01/26 11:45:37;;;;;;;9.83;3.03;;;6.60;99.90;;;;;;5114726;27;20210;-78
2021/01/26 11:48:08;;;;;;;5.70;3.40;;;6.70;99.90;;;;;;5113623;27;20215;-78
2021/01/26 11:50:35;;;;;;;13.57;2.90;;;6.90;99.90;;;;;;5117354;27;20199;-78
2021/01/26 11:53:02;;;;;;;8.67;3.33;;;6.80;99.90;;;;;;5121296;27;20280;-78
2021/01/26 11:55:31;;;;;;;10.57;3.30;;;6.80;99.90;;;;;;5122886;27;20255;-78
2021/01/26 11:57:58;;;;;;;6.20;2.90;;;6.70;99.90;;;;;;5120164;27;20323;-78
2021/01/26 12:00:27;;;;;;;7.80;3.20;;;6.80;99.90;;;;;;5124696;27;20230;-78
2021/01/26 12:02:55;;;;;;;9.20;3.23;;;6.80;99.90;;;;;;5116329;27;20286;-78
2021/01/26 12:05:24;;;;;;;8.23;3.20;;;6.80;99.90;;;;;;5122989;27;20231;-77
2021/01/26 12:07:51;;;;;;;8.17;3.37;;;6.80;99.90;;;;;;5126881;27;20310;-78
2021/01/26 12:10:18;;;;;;;17.57;3.80;;;6.80;99.90;;;;;;5122888;27;20190;-78
2021/01/26 12:12:45;;;;;;;7.57;2.90;;;6.80;99.90;;;;;;5121544;27;20244;-78
2021/01/26 12:15:16;;;;;;;5.43;2.70;;;6.90;99.90;;;;;;5122492;27;20195;-78
2021/01/26 12:17:42;;;;;;;5.27;2.70;;;6.90;99.90;;;;;;5124720;28;20248;-78
2021/01/26 12:20:10;;;;;;;7.60;2.90;;;6.90;99.90;;;;;;5122868;28;20292;-78
2021/01/26 12:22:36;;;;;;;10.50;2.80;;;7.00;99.90;;;;;;5123957;27;20191;-78
2021/01/26 12:25:04;;;;;;;9.00;3.40;;;7.10;99.90;;;;;;5129146;28;20194;-78
2021/01/26 12:27:30;;;;;;;6.77;3.23;;;7.20;99.90;;;;;;5122213;28;20746;-77
2021/01/26 12:29:57;;;;;;;7.47;3.40;;;7.10;99.90;;;;;;5117921;28;20226;-78
2021/01/26 12:32:23;;;;;;;9.60;4.10;;;7.20;99.90;;;;;;5118195;28;20215;-78
2021/01/26 12:34:50;;;;;;;9.07;3.80;;;7.20;99.90;;;;;;5123978;28;20199;-78
2021/01/26 12:37:19;;;;;;;10.20;4.20;;;7.00;99.90;;;;;;5119664;28;20245;-78
2021/01/26 12:39:45;;;;;;;11.10;3.67;;;7.00;99.90;;;;;;5124057;28;20579;-78
2021/01/26 12:42:12;;;;;;;9.50;3.73;;;7.00;99.90;;;;;;5122904;28;20766;-78
2021/01/26 12:44:39;;;;;;;8.00;3.50;;;6.80;99.90;;;;;;5112779;28;20272;-78
2021/01/26 12:47:05;;;;;;;11.63;4.23;;;6.60;99.90;;;;;;5109308;28;20229;-78
2021/01/26 12:49:32;;;;;;;14.60;3.60;;;6.60;99.90;;;;;;5121086;27;20198;-78
2021/01/26 12:51:58;;;;;;;10.03;4.50;;;6.70;99.90;;;;;;5117171;28;20200;-78
2021/01/26 12:54:26;;;;;;;8.93;3.60;;;6.60;99.90;;;;;;5118481;28;20199;-77
2021/01/26 12:56:52;;;;;;;9.07;3.63;;;6.60;99.90;;;;;;5116888;28;20290;-78
2021/01/26 12:59:19;;;;;;;5.30;3.03;;;6.50;99.90;;;;;;5116879;28;20210;-77
2021/01/26 13:01:45;;;;;;;10.77;3.23;;;6.50;99.90;;;;;;5123774;28;20241;-77
2021/01/26 13:04:12;;;;;;;10.57;3.33;;;6.40;99.90;;;;;;5128122;27;20249;-77
2021/01/26 13:06:38;;;;;;;10.93;3.43;;;6.30;99.90;;;;;;5134025;27;20248;-78
2021/01/26 13:09:06;;;;;;;8.87;3.20;;;6.30;99.90;;;;;;5135729;27;20284;-78
2021/01/26 13:11:34;;;;;;;7.50;3.07;;;6.30;99.90;;;;;;5124792;27;20705;-78
2021/01/26 13:14:00;;;;;;;6.10;2.77;;;6.20;99.90;;;;;;5130808;27;20285;-78
2021/01/26 13:16:26;;;;;;;7.90;3.17;;;6.20;99.90;;;;;;5124308;27;20709;-78
2021/01/26 13:18:53;;;;;;;10.00;3.60;;;6.20;99.90;;;;;;5127193;27;20207;-77
2021/01/26 13:21:20;;;;;;;8.10;3.00;;;6.20;99.90;;;;;;5122854;27;20290;-78